Castillo-santisteban — 9HA2217 — position and weather

sailwx.info

Track history (hours):
 
Tides and Currents Weather Stations Pressure Air Temp Water Temp Dewpoint Dewpoint Depression Visibility Wind Speed Wind Dir Waves Ship Positions

Castillo-santisteban

Last reported at 2018-Jul-21 18:30 UTC. Time now 2018-Jul-21 18:48 UTC.
Position N 01°11' E 103°41'.

Length 300 m; draft 9.7 m.

Type: Ship (hazmat cat A). MMSI: 215739000.

Date/timePositionNaut miles runAvg speedWind from/ knotsBaromVisibWave heightAir tempDewpointWater temp
2018-Jul-21 18:30N 01°11' E 103°41'0 0.0
2018-Jul-21 17:59N 01°11' E 103°41'0 0.0
2018-Jul-21 17:26N 01°11' E 103°41'0 0.1
2018-Jul-21 16:59N 01°11' E 103°41'0 0.1
2018-Jul-21 16:28N 01°11' E 103°41'0 0.0
2018-Jul-21 15:55N 01°11' E 103°41'0 0.1
2018-Jul-21 15:26N 01°11' E 103°41'0 0.0
2018-Jul-21 14:59N 01°11' E 103°41'0 0.1
2018-Jul-21 14:27N 01°11' E 103°41'0 0.1
2018-Jul-21 13:59N 01°11' E 103°41'0 0.0
2018-Jul-21 13:29N 01°11' E 103°41'0 0.0
2018-Jul-21 13:00N 01°11' E 103°41'0 0.3
2018-Jul-21 12:29N 01°11' E 103°42'0 0.2
2018-Jul-21 11:59N 01°11' E 103°42'0 0.1
2018-Jul-21 11:23N 01°11' E 103°42'0 0.0
2018-Jul-21 10:59N 01°11' E 103°42'0 0.1
2018-Jul-21 10:08N 01°11' E 103°42'0 0.1
2018-Jul-21 09:50N 01°11' E 103°42'0 0.1
2018-Jul-21 09:26N 01°11' E 103°42'0 0.3
2018-Jul-21 08:59N 01°11' E 103°41'0 0.1
2018-Jul-21 08:29N 01°11' E 103°41'0 0.0
2018-Jul-21 07:58N 01°11' E 103°41'0 0.0
2018-Jul-21 07:29N 01°11' E 103°41'0 0.0
2018-Jul-21 06:59N 01°11' E 103°41'0 0.0
2018-Jul-21 06:23N 01°11' E 103°41'0 0.0
2018-Jul-21 05:59N 01°11' E 103°41'0 0.0
2018-Jul-21 05:29N 01°11' E 103°41'0 0.1
2018-Jul-21 04:59N 01°11' E 103°41'0 0.0
2018-Jul-21 04:26N 01°11' E 103°41'0 0.1
2018-Jul-21 03:59N 01°11' E 103°41'0 0.0
2018-Jul-21 03:29N 01°11' E 103°41'0 0.0
2018-Jul-21 02:59N 01°11' E 103°41'0 0.1
2018-Jul-21 02:29N 01°11' E 103°42'0 0.0
2018-Jul-21 01:59N 01°11' E 103°42'0 0.0
2018-Jul-21 01:29N 01°11' E 103°42'0 0.0
2018-Jul-21 00:59N 01°11' E 103°42'0 0.1
2018-Jul-21 00:29N 01°11' E 103°42'1 1.2
2018-Jul-21 00:00N 01°10' E 103°42'3 5.4
2018-Jul-20 23:30N 01°09' E 103°44'4 7.0
2018-Jul-20 23:00N 01°10' E 103°47'4 7.1
2018-Jul-20 22:30N 01°12' E 103°51'815.6
2018-Jul-20 22:00N 01°15' E 103°58'815.8
2018-Jul-20 21:31N 01°16' E 104°06'815.9
2018-Jul-20 20:59N 01°17' E 104°14'916.0
2018-Jul-20 20:27N 01°21' E 104°21'816.3
2018-Jul-20 19:59N 01°26' E 104°27'814.7
2018-Jul-20 19:27N 01°31' E 104°33'715.8
2018-Jul-20 19:00N 01°38' E 104°35'815.6
2018-Jul-20 18:28N 01°47' E 104°35'1216.3
2018-Jul-20 17:43N 01°59' E 104°38'516.2
2018-Jul-20 17:25N 02°03' E 104°39'  
Track history (hours):
 
Tides and Currents Weather Stations Pressure Air Temp Water Temp Dewpoint Dewpoint Depression Visibility Wind Speed Wind Dir Waves Ship Positions

Castillo-santisteban

Last reported at 2018-Jul-21 18:30 UTC. Time now 2018-Jul-21 18:48 UTC.
Position N 01°11' E 103°41'.

Length 300 m; draft 9.7 m.

Type: Ship (hazmat cat A). MMSI: 215739000.

Date/timePositionNaut miles runAvg speedWind from/ knotsBaromVisibWave heightAir tempDewpointWater temp
2018-Jul-21 18:30N 01°11' E 103°41'0 0.0
2018-Jul-21 17:59N 01°11' E 103°41'0 0.0
2018-Jul-21 17:26N 01°11' E 103°41'0 0.1
2018-Jul-21 16:59N 01°11' E 103°41'0 0.1
2018-Jul-21 16:28N 01°11' E 103°41'0 0.0
2018-Jul-21 15:55N 01°11' E 103°41'0 0.1
2018-Jul-21 15:26N 01°11' E 103°41'0 0.0
2018-Jul-21 14:59N 01°11' E 103°41'0 0.1
2018-Jul-21 14:27N 01°11' E 103°41'0 0.1
2018-Jul-21 13:59N 01°11' E 103°41'0 0.0
2018-Jul-21 13:29N 01°11' E 103°41'0 0.0
2018-Jul-21 13:00N 01°11' E 103°41'0 0.3
2018-Jul-21 12:29N 01°11' E 103°42'0 0.2
2018-Jul-21 11:59N 01°11' E 103°42'0 0.1
2018-Jul-21 11:23N 01°11' E 103°42'0 0.0
2018-Jul-21 10:59N 01°11' E 103°42'0 0.1
2018-Jul-21 10:08N 01°11' E 103°42'0 0.1
2018-Jul-21 09:50N 01°11' E 103°42'0 0.1
2018-Jul-21 09:26N 01°11' E 103°42'0 0.3
2018-Jul-21 08:59N 01°11' E 103°41'0 0.1
2018-Jul-21 08:29N 01°11' E 103°41'0 0.0
2018-Jul-21 07:58N 01°11' E 103°41'0 0.0
2018-Jul-21 07:29N 01°11' E 103°41'0 0.0
2018-Jul-21 06:59N 01°11' E 103°41'0 0.0
2018-Jul-21 06:23N 01°11' E 103°41'0 0.0
2018-Jul-21 05:59N 01°11' E 103°41'0 0.0
2018-Jul-21 05:29N 01°11' E 103°41'0 0.1
2018-Jul-21 04:59N 01°11' E 103°41'0 0.0
2018-Jul-21 04:26N 01°11' E 103°41'0 0.1
2018-Jul-21 03:59N 01°11' E 103°41'0 0.0
2018-Jul-21 03:29N 01°11' E 103°41'0 0.0
2018-Jul-21 02:59N 01°11' E 103°41'0 0.1
2018-Jul-21 02:29N 01°11' E 103°42'0 0.0
2018-Jul-21 01:59N 01°11' E 103°42'0 0.0
2018-Jul-21 01:29N 01°11' E 103°42'0 0.0
2018-Jul-21 00:59N 01°11' E 103°42'0 0.1
2018-Jul-21 00:29N 01°11' E 103°42'1 1.2
2018-Jul-21 00:00N 01°10' E 103°42'3 5.4
2018-Jul-20 23:30N 01°09' E 103°44'4 7.0
2018-Jul-20 23:00N 01°10' E 103°47'4 7.1
2018-Jul-20 22:30N 01°12' E 103°51'815.6
2018-Jul-20 22:00N 01°15' E 103°58'815.8
2018-Jul-20 21:31N 01°16' E 104°06'815.9
2018-Jul-20 20:59N 01°17' E 104°14'916.0
2018-Jul-20 20:27N 01°21' E 104°21'816.3
2018-Jul-20 19:59N 01°26' E 104°27'814.7
2018-Jul-20 19:27N 01°31' E 104°33'715.8
2018-Jul-20 19:00N 01°38' E 104°35'815.6
2018-Jul-20 18:28N 01°47' E 104°35'1216.3
2018-Jul-20 17:43N 01°59' E 104°38'516.2
2018-Jul-20 17:25N 02°03' E 104°39'  

Dump ship's entire track history